Terminal Aerodrome Forecast
Issued by NWS Melbourne, FL

Current Version | Previous Version | Text Only | Print | Product List | Glossary On
Versions: 1 2 3 4 5 6 7 8 9 10 11 12 13 14 15 16 17
000
FTUS42 KMLB 241100
TAFMLB
TAF
KMLB 241137Z 2412/2512 29004KT P6SM FEW040
     FM241400 05014G20KT P6SM SCT035
     FM250000 02012KT P6SM SCT045=

USA.gov is the U.S. government's official web portal to all federal, state and local government web resources and services.